CSN8962 ZUTF-ZSAM
Flight info
| Callsign | CSN8962 |
|---|---|
| Flight time | 2h 0m |
| Altitude | 35100 |
| Route | ATVA9G ATVAX W234 NIXID B330 QP G586 WYN MABAG XEBUL NUVGA VETIB W155 TEBON TEBO8X |
| Aircraft | B738/M-SDE2E3FGHIRWXY/LB1 |
Departure
| Time | 2026-05-04 05:51 |
|---|---|
| Airport | Chengdu Tianfu International Airport (ZUTF) |
Arrival
| Time | 2026-05-04 07:52 |
|---|---|
| Airport | Xiamen Gaoqi International Airport (ZSAM) |
| Time | Latitude | Longitude | Altitude | Speed | Heading |
|---|---|---|---|---|---|
| 2026-05-04 05:29 | 30.31468 | 104.43481 | 1459 ft | 0 kts | 22° |
| 2026-05-04 05:36 | 30.31464 | 104.43480 | 1459 ft | 2 kts | 22° |
| 2026-05-04 05:36 | 30.31450 | 104.43473 | 1459 ft | 2 kts | 22° |
| 2026-05-04 05:37 | 30.31440 | 104.43469 | 1459 ft | 0 kts | 22° |
| 2026-05-04 05:37 | 30.31427 | 104.43464 | 1459 ft | 2 kts | 360° |
| 2026-05-04 05:37 | 30.31413 | 104.43466 | 1459 ft | 2 kts | 338° |
| 2026-05-04 05:38 | 30.31393 | 104.43487 | 1459 ft | 0 kts | 294° |
| 2026-05-04 05:38 | 30.31390 | 104.43494 | 1459 ft | 1 kts | 291° |
| 2026-05-04 05:38 | 30.31390 | 104.43495 | 1459 ft | 0 kts | 291° |
| 2026-05-04 05:45 | 30.31422 | 104.43401 | 1459 ft | 6 kts | 291° |
| 2026-05-04 05:45 | 30.31439 | 104.43354 | 1459 ft | 8 kts | 292° |
| 2026-05-04 05:47 | 30.30943 | 104.42972 | 1459 ft | 16 kts | 200° |
| 2026-05-04 05:47 | 30.30842 | 104.42921 | 1460 ft | 15 kts | 205° |
| 2026-05-04 05:47 | 30.30767 | 104.42882 | 1460 ft | 6 kts | 223° |
| 2026-05-04 05:48 | 30.30759 | 104.42840 | 1460 ft | 6 kts | 276° |
| 2026-05-04 05:48 | 30.30783 | 104.42773 | 1460 ft | 11 kts | 294° |
| 2026-05-04 05:48 | 30.30851 | 104.42705 | 1460 ft | 16 kts | 354° |
| 2026-05-04 05:48 | 30.30984 | 104.42700 | 1460 ft | 21 kts | 0° |
| 2026-05-04 05:49 | 30.31150 | 104.42738 | 1460 ft | 27 kts | 23° |
| 2026-05-04 05:49 | 30.31485 | 104.42898 | 1460 ft | 89 kts | 22° |
| 2026-05-04 05:49 | 30.32286 | 104.43291 | 1462 ft | 156 kts | 23° |
| 2026-05-04 05:49 | 30.33385 | 104.43805 | 1808 ft | 184 kts | 25° |
| 2026-05-04 05:51 | 30.44082 | 104.47296 | 6180 ft | 280 kts | 32° |
| 2026-05-04 05:51 | 30.45766 | 104.48446 | 6783 ft | 285 kts | 30° |
| 2026-05-04 05:52 | 30.47513 | 104.49580 | 7389 ft | 286 kts | 29° |
| 2026-05-04 05:52 | 30.49250 | 104.50684 | 7989 ft | 289 kts | 28° |
| 2026-05-04 05:52 | 30.51014 | 104.51802 | 8591 ft | 291 kts | 28° |
| 2026-05-04 05:52 | 30.52820 | 104.52950 | 9196 ft | 294 kts | 27° |
| 2026-05-04 05:53 | 30.54603 | 104.54088 | 9797 ft | 300 kts | 27° |
| 2026-05-04 05:54 | 30.69604 | 104.63693 | 14046 ft | 383 kts | 28° |
| 2026-05-04 05:55 | 30.71808 | 104.65479 | 14666 ft | 388 kts | 40° |
| 2026-05-04 05:55 | 30.73624 | 104.67838 | 15293 ft | 395 kts | 53° |
| 2026-05-04 05:55 | 30.75007 | 104.70634 | 15930 ft | 400 kts | 64° |
| 2026-05-04 05:55 | 30.75989 | 104.73646 | 16558 ft | 406 kts | 72° |
| 2026-05-04 05:56 | 30.76576 | 104.76894 | 17194 ft | 417 kts | 83° |
| 2026-05-04 05:56 | 30.76514 | 104.80290 | 17836 ft | 427 kts | 97° |
| 2026-05-04 05:56 | 30.75788 | 104.83691 | 18473 ft | 436 kts | 109° |
| 2026-05-04 05:56 | 30.74545 | 104.86936 | 19112 ft | 444 kts | 118° |
| 2026-05-04 05:57 | 30.72835 | 104.89922 | 19745 ft | 451 kts | 129° |
| 2026-05-04 05:57 | 30.70673 | 104.92609 | 20386 ft | 457 kts | 139° |
| 2026-05-04 05:57 | 30.68163 | 104.94866 | 21033 ft | 461 kts | 148° |
| 2026-05-04 05:57 | 30.65359 | 104.96648 | 21671 ft | 464 kts | 158° |
| 2026-05-04 05:58 | 30.62328 | 104.97907 | 22303 ft | 466 kts | 168° |
| 2026-05-04 05:58 | 30.59151 | 104.98607 | 22946 ft | 466 kts | 177° |
| 2026-05-04 05:58 | 30.55897 | 104.98725 | 23571 ft | 465 kts | 187° |
| 2026-05-04 05:58 | 30.52686 | 104.98254 | 24177 ft | 463 kts | 197° |
| 2026-05-04 05:59 | 30.49608 | 104.97212 | 24782 ft | 459 kts | 206° |
| 2026-05-04 05:59 | 30.46745 | 104.95668 | 25365 ft | 456 kts | 214° |
| 2026-05-04 05:59 | 30.43989 | 104.93818 | 25948 ft | 457 kts | 217° |
| 2026-05-04 05:59 | 30.41269 | 104.91959 | 26528 ft | 459 kts | 217° |
| 2026-05-04 06:00 | 30.38475 | 104.90169 | 27117 ft | 463 kts | 214° |
| 2026-05-04 06:00 | 30.35569 | 104.88522 | 27702 ft | 467 kts | 211° |
| 2026-05-04 06:00 | 30.32565 | 104.87035 | 28293 ft | 470 kts | 209° |
| 2026-05-04 06:00 | 30.29506 | 104.85672 | 28881 ft | 471 kts | 208° |
| 2026-05-04 06:01 | 30.26466 | 104.84340 | 29454 ft | 471 kts | 208° |
| 2026-05-04 06:01 | 30.23347 | 104.83182 | 29977 ft | 474 kts | 202° |
| 2026-05-04 06:03 | 29.99640 | 104.84622 | 32546 ft | 514 kts | 178° |
| 2026-05-04 06:03 | 29.96127 | 104.85375 | 32553 ft | 522 kts | 175° |
| 2026-05-04 06:05 | 29.65029 | 104.96854 | 32555 ft | 519 kts | 168° |
| 2026-05-04 06:06 | 29.58175 | 104.99430 | 32546 ft | 518 kts | 169° |
| 2026-05-04 06:06 | 29.51295 | 105.01990 | 32542 ft | 517 kts | 169° |
| 2026-05-04 06:07 | 29.44496 | 105.04549 | 32535 ft | 516 kts | 168° |
| 2026-05-04 06:07 | 29.37645 | 105.07183 | 32534 ft | 518 kts | 168° |
| 2026-05-04 06:08 | 29.30838 | 105.09817 | 32531 ft | 517 kts | 168° |
| 2026-05-04 06:08 | 29.23993 | 105.12458 | 32534 ft | 515 kts | 168° |
| 2026-05-04 06:09 | 29.17201 | 105.15067 | 32534 ft | 514 kts | 168° |
| 2026-05-04 06:11 | 28.90144 | 105.25383 | 32518 ft | 513 kts | 169° |
| 2026-05-04 06:13 | 28.63168 | 105.35618 | 32541 ft | 508 kts | 169° |
| 2026-05-04 06:14 | 28.39740 | 105.44460 | 32593 ft | 504 kts | 169° |
| 2026-05-04 06:15 | 28.33049 | 105.46976 | 32615 ft | 504 kts | 170° |
| 2026-05-04 06:15 | 28.26393 | 105.49474 | 32631 ft | 503 kts | 169° |
| 2026-05-04 06:16 | 28.19736 | 105.51968 | 32631 ft | 504 kts | 170° |
| 2026-05-04 06:16 | 28.13073 | 105.54466 | 32639 ft | 503 kts | 170° |
| 2026-05-04 06:17 | 28.06409 | 105.56884 | 32633 ft | 497 kts | 173° |
| 2026-05-04 06:17 | 27.99695 | 105.58514 | 32635 ft | 489 kts | 180° |
| 2026-05-04 06:18 | 27.92972 | 105.59589 | 32638 ft | 486 kts | 182° |
| 2026-05-04 06:20 | 27.66691 | 105.68295 | 32633 ft | 516 kts | 156° |
| 2026-05-04 06:21 | 27.00235 | 106.07301 | 32679 ft | 519 kts | 155° |
| 2026-05-04 06:22 | 26.94390 | 106.12202 | 32679 ft | 530 kts | 143° |
| 2026-05-04 06:25 | 26.65248 | 106.60715 | 32679 ft | 537 kts | 132° |
| 2026-05-04 06:26 | 26.60672 | 106.67304 | 32690 ft | 535 kts | 132° |
| 2026-05-04 06:26 | 26.56163 | 106.73906 | 32682 ft | 538 kts | 130° |
| 2026-05-04 06:27 | 26.48288 | 106.92941 | 32678 ft | 547 kts | 109° |
| 2026-05-04 06:28 | 26.46204 | 107.01061 | 32676 ft | 550 kts | 107° |
| 2026-05-04 06:28 | 26.44157 | 107.09230 | 32672 ft | 548 kts | 107° |
| 2026-05-04 06:29 | 26.42103 | 107.17374 | 32672 ft | 547 kts | 108° |
| 2026-05-04 06:29 | 26.40003 | 107.25539 | 32665 ft | 546 kts | 108° |
| 2026-05-04 06:30 | 26.37878 | 107.33644 | 32660 ft | 546 kts | 108° |
| 2026-05-04 06:30 | 26.35744 | 107.41711 | 32647 ft | 546 kts | 109° |
| 2026-05-04 06:31 | 26.33595 | 107.49803 | 32639 ft | 546 kts | 109° |
| 2026-05-04 06:31 | 26.31443 | 107.57885 | 32633 ft | 545 kts | 109° |
| 2026-05-04 06:33 | 26.22812 | 107.90163 | 32634 ft | 544 kts | 110° |
| 2026-05-04 06:34 | 26.20666 | 107.98250 | 32621 ft | 544 kts | 110° |
| 2026-05-04 06:34 | 26.18539 | 108.06316 | 32623 ft | 543 kts | 110° |
| 2026-05-04 06:36 | 26.09983 | 108.38486 | 32612 ft | 543 kts | 110° |
| 2026-05-04 06:37 | 26.07847 | 108.46492 | 32601 ft | 544 kts | 110° |
| 2026-05-04 06:37 | 26.05718 | 108.54538 | 32598 ft | 543 kts | 110° |
| 2026-05-04 06:38 | 26.03595 | 108.62568 | 32608 ft | 544 kts | 110° |
| 2026-05-04 06:40 | 25.95071 | 108.94704 | 32595 ft | 543 kts | 110° |
| 2026-05-04 06:40 | 25.92945 | 109.02708 | 32591 ft | 542 kts | 111° |
| 2026-05-04 06:41 | 25.90827 | 109.10712 | 32589 ft | 543 kts | 110° |
| 2026-05-04 06:41 | 25.88722 | 109.18774 | 32589 ft | 546 kts | 110° |
| 2026-05-04 06:42 | 25.86624 | 109.26837 | 32586 ft | 545 kts | 110° |
| 2026-05-04 06:44 | 25.77797 | 109.58845 | 32561 ft | 538 kts | 119° |
| 2026-05-04 06:44 | 25.74210 | 109.66011 | 32560 ft | 525 kts | 131° |
| 2026-05-04 06:45 | 25.69641 | 109.72155 | 32567 ft | 513 kts | 143° |
| 2026-05-04 06:45 | 25.64303 | 109.77248 | 32574 ft | 502 kts | 151° |
| 2026-05-04 06:46 | 25.58917 | 109.81864 | 32582 ft | 505 kts | 150° |
| 2026-05-04 06:46 | 25.53502 | 109.86850 | 32583 ft | 509 kts | 147° |
| 2026-05-04 06:48 | 25.14270 | 110.27642 | 32545 ft | 508 kts | 144° |
| 2026-05-04 06:50 | 24.93896 | 110.49264 | 32562 ft | 509 kts | 144° |
| 2026-05-04 06:51 | 24.88805 | 110.54649 | 32563 ft | 510 kts | 144° |
| 2026-05-04 06:51 | 24.83703 | 110.60034 | 32557 ft | 509 kts | 144° |
| 2026-05-04 06:52 | 24.78630 | 110.65388 | 32550 ft | 507 kts | 144° |
| 2026-05-04 06:52 | 24.73530 | 110.70757 | 32549 ft | 508 kts | 144° |
| 2026-05-04 06:53 | 24.68731 | 110.76575 | 32554 ft | 521 kts | 134° |
| 2026-05-04 06:53 | 24.64908 | 110.83344 | 32561 ft | 530 kts | 122° |
| 2026-05-04 06:54 | 24.62198 | 110.90950 | 32566 ft | 540 kts | 111° |
| 2026-05-04 06:54 | 24.60754 | 110.99044 | 32572 ft | 546 kts | 99° |
| 2026-05-04 06:55 | 24.60631 | 111.07385 | 32566 ft | 551 kts | 88° |
| 2026-05-04 06:55 | 24.61668 | 111.15702 | 32561 ft | 551 kts | 82° |
| 2026-05-04 06:57 | 24.61008 | 111.48910 | 32563 ft | 545 kts | 99° |
| 2026-05-04 06:58 | 24.60161 | 111.57162 | 32567 ft | 543 kts | 99° |
| 2026-05-04 06:58 | 24.59351 | 111.65421 | 32582 ft | 546 kts | 99° |
| 2026-05-04 06:59 | 24.58572 | 111.73686 | 32586 ft | 544 kts | 99° |
| 2026-05-04 06:59 | 24.57814 | 111.81893 | 32595 ft | 545 kts | 99° |
| 2026-05-04 07:01 | 24.54734 | 112.14931 | 32595 ft | 546 kts | 99° |
| 2026-05-04 07:02 | 24.53951 | 112.23174 | 32585 ft | 546 kts | 99° |
| 2026-05-04 07:02 | 24.53165 | 112.31404 | 32576 ft | 543 kts | 99° |
| 2026-05-04 07:03 | 24.52373 | 112.39651 | 32573 ft | 545 kts | 99° |
| 2026-05-04 07:03 | 24.51578 | 112.47881 | 32575 ft | 543 kts | 99° |
| 2026-05-04 07:04 | 24.50777 | 112.56116 | 32574 ft | 544 kts | 99° |
| 2026-05-04 07:04 | 24.49973 | 112.64334 | 32572 ft | 544 kts | 99° |
| 2026-05-04 07:05 | 24.49162 | 112.72601 | 32564 ft | 543 kts | 100° |
| 2026-05-04 07:05 | 24.48352 | 112.80821 | 32564 ft | 544 kts | 100° |
| 2026-05-04 07:06 | 24.47140 | 112.93082 | 32571 ft | 542 kts | 100° |
| 2026-05-04 07:07 | 24.46318 | 113.01345 | 32568 ft | 543 kts | 100° |
| 2026-05-04 07:09 | 24.42976 | 113.34129 | 32591 ft | 541 kts | 100° |
| 2026-05-04 07:09 | 24.42129 | 113.42303 | 32579 ft | 543 kts | 100° |
| 2026-05-04 07:10 | 24.41291 | 113.50462 | 32564 ft | 541 kts | 99° |
| 2026-05-04 07:12 | 24.37927 | 113.83247 | 32545 ft | 541 kts | 100° |
| 2026-05-04 07:12 | 24.37070 | 113.91460 | 32548 ft | 543 kts | 100° |
| 2026-05-04 07:13 | 24.36212 | 113.99652 | 32553 ft | 542 kts | 100° |
| 2026-05-04 07:13 | 24.35353 | 114.07785 | 32555 ft | 542 kts | 100° |
| 2026-05-04 07:14 | 24.33368 | 114.28342 | 32570 ft | 544 kts | 99° |
| 2026-05-04 07:15 | 24.32631 | 114.36558 | 32570 ft | 542 kts | 99° |
| 2026-05-04 07:15 | 24.31883 | 114.44724 | 32565 ft | 542 kts | 99° |
| 2026-05-04 07:16 | 24.31120 | 114.52940 | 32560 ft | 541 kts | 99° |
| 2026-05-04 07:16 | 24.30396 | 114.61096 | 32560 ft | 542 kts | 98° |
| 2026-05-04 07:17 | 24.29691 | 114.69321 | 32564 ft | 540 kts | 99° |
| 2026-05-04 07:17 | 24.28989 | 114.77473 | 32563 ft | 542 kts | 99° |
| 2026-05-04 07:18 | 24.28276 | 114.85662 | 32560 ft | 540 kts | 99° |
| 2026-05-04 07:18 | 24.27566 | 114.93901 | 32559 ft | 541 kts | 99° |
| 2026-05-04 07:19 | 24.26871 | 115.02085 | 32563 ft | 543 kts | 99° |
| 2026-05-04 07:19 | 24.26172 | 115.10262 | 32558 ft | 539 kts | 98° |
| 2026-05-04 07:20 | 24.25472 | 115.18402 | 32556 ft | 540 kts | 99° |
| 2026-05-04 07:20 | 24.24763 | 115.26572 | 32556 ft | 540 kts | 99° |
| 2026-05-04 07:22 | 24.22078 | 115.59383 | 32559 ft | 542 kts | 97° |
| 2026-05-04 07:23 | 24.21531 | 115.67611 | 32558 ft | 541 kts | 97° |
| 2026-05-04 07:23 | 24.20988 | 115.75665 | 32528 ft | 516 kts | 97° |
| 2026-05-04 07:24 | 24.20727 | 115.79507 | 32072 ft | 510 kts | 97° |
| 2026-05-04 07:24 | 24.20459 | 115.83366 | 31561 ft | 505 kts | 97° |
| 2026-05-04 07:24 | 24.20189 | 115.87180 | 31066 ft | 501 kts | 98° |
| 2026-05-04 07:24 | 24.19909 | 115.91010 | 30802 ft | 514 kts | 98° |
| 2026-05-04 07:25 | 24.19616 | 115.94948 | 30237 ft | 516 kts | 98° |
| 2026-05-04 07:26 | 24.17665 | 116.21581 | 25853 ft | 491 kts | 97° |
| 2026-05-04 07:27 | 24.17395 | 116.25240 | 25242 ft | 487 kts | 97° |
| 2026-05-04 07:27 | 24.17121 | 116.28945 | 24618 ft | 484 kts | 97° |
| 2026-05-04 07:27 | 24.16849 | 116.32603 | 24000 ft | 481 kts | 97° |
| 2026-05-04 07:27 | 24.16578 | 116.36217 | 23398 ft | 477 kts | 96° |
| 2026-05-04 07:28 | 24.16309 | 116.39798 | 22807 ft | 474 kts | 96° |
| 2026-05-04 07:28 | 24.16041 | 116.43340 | 22229 ft | 471 kts | 96° |
| 2026-05-04 07:28 | 24.15807 | 116.46867 | 21657 ft | 467 kts | 95° |
| 2026-05-04 07:28 | 24.15637 | 116.50388 | 21083 ft | 464 kts | 93° |
| 2026-05-04 07:29 | 24.15506 | 116.53882 | 20507 ft | 461 kts | 93° |
| 2026-05-04 07:29 | 24.15390 | 116.57326 | 19933 ft | 457 kts | 93° |
| 2026-05-04 07:29 | 24.15277 | 116.60777 | 19351 ft | 453 kts | 93° |
| 2026-05-04 07:29 | 24.15161 | 116.64207 | 18763 ft | 449 kts | 93° |
| 2026-05-04 07:30 | 24.15042 | 116.67606 | 18177 ft | 445 kts | 94° |
| 2026-05-04 07:30 | 24.14923 | 116.70931 | 17598 ft | 441 kts | 94° |
| 2026-05-04 07:30 | 24.14801 | 116.74232 | 17022 ft | 437 kts | 94° |
| 2026-05-04 07:30 | 24.14674 | 116.77554 | 16488 ft | 431 kts | 94° |
| 2026-05-04 07:31 | 24.14547 | 116.80784 | 16020 ft | 424 kts | 94° |
| 2026-05-04 07:31 | 24.14419 | 116.83972 | 15560 ft | 416 kts | 94° |
| 2026-05-04 07:33 | 24.14211 | 117.04947 | 12264 ft | 378 kts | 91° |
| 2026-05-04 07:33 | 24.14194 | 117.07822 | 11789 ft | 373 kts | 91° |
| 2026-05-04 07:33 | 24.14180 | 117.10623 | 11317 ft | 369 kts | 91° |
| 2026-05-04 07:33 | 24.14167 | 117.13422 | 10835 ft | 365 kts | 91° |
| 2026-05-04 07:34 | 24.14152 | 117.16167 | 10355 ft | 362 kts | 91° |
| 2026-05-04 07:34 | 24.14134 | 117.18895 | 9883 ft | 358 kts | 91° |
| 2026-05-04 07:34 | 24.14115 | 117.21619 | 9402 ft | 355 kts | 91° |
| 2026-05-04 07:34 | 24.14099 | 117.24281 | 8926 ft | 352 kts | 91° |
| 2026-05-04 07:35 | 24.14083 | 117.26947 | 8446 ft | 348 kts | 91° |
| 2026-05-04 07:35 | 24.14069 | 117.29560 | 7964 ft | 345 kts | 91° |
| 2026-05-04 07:35 | 24.14053 | 117.32172 | 7475 ft | 341 kts | 91° |
| 2026-05-04 07:35 | 24.14035 | 117.34744 | 7045 ft | 336 kts | 91° |
| 2026-05-04 07:36 | 24.14017 | 117.37247 | 6961 ft | 319 kts | 91° |
| 2026-05-04 07:36 | 24.13999 | 117.39593 | 6962 ft | 300 kts | 91° |
| 2026-05-04 07:38 | 24.16792 | 117.53723 | 6964 ft | 281 kts | 43° |
| 2026-05-04 07:38 | 24.18133 | 117.55193 | 6958 ft | 267 kts | 44° |
| 2026-05-04 07:38 | 24.19405 | 117.56638 | 6686 ft | 267 kts | 45° |
| 2026-05-04 07:38 | 24.20670 | 117.58128 | 6323 ft | 267 kts | 46° |
| 2026-05-04 07:39 | 24.21925 | 117.59632 | 5951 ft | 267 kts | 46° |
| 2026-05-04 07:39 | 24.23163 | 117.61117 | 5555 ft | 263 kts | 47° |
| 2026-05-04 07:39 | 24.24382 | 117.62578 | 5183 ft | 254 kts | 46° |
| 2026-05-04 07:39 | 24.25562 | 117.63985 | 4812 ft | 246 kts | 46° |
| 2026-05-04 07:40 | 24.26705 | 117.65341 | 4443 ft | 239 kts | 47° |
| 2026-05-04 07:40 | 24.27807 | 117.66660 | 4104 ft | 234 kts | 47° |
| 2026-05-04 07:40 | 24.28890 | 117.67969 | 3936 ft | 225 kts | 48° |
| 2026-05-04 07:40 | 24.29912 | 117.69192 | 3946 ft | 210 kts | 47° |
| 2026-05-04 07:41 | 24.30894 | 117.70359 | 3955 ft | 202 kts | 47° |
| 2026-05-04 07:41 | 24.31843 | 117.71501 | 3980 ft | 202 kts | 47° |
| 2026-05-04 07:41 | 24.32785 | 117.72638 | 3964 ft | 203 kts | 47° |
| 2026-05-04 07:41 | 24.33729 | 117.73769 | 3949 ft | 201 kts | 47° |
| 2026-05-04 07:42 | 24.34670 | 117.74912 | 3951 ft | 201 kts | 47° |
| 2026-05-04 07:42 | 24.35612 | 117.76047 | 3947 ft | 200 kts | 47° |
| 2026-05-04 07:42 | 24.36569 | 117.77197 | 3961 ft | 206 kts | 48° |
| 2026-05-04 07:42 | 24.37521 | 117.78336 | 3952 ft | 204 kts | 48° |
| 2026-05-04 07:43 | 24.38462 | 117.79483 | 3961 ft | 205 kts | 48° |
| 2026-05-04 07:43 | 24.39385 | 117.80654 | 3963 ft | 199 kts | 52° |
| 2026-05-04 07:43 | 24.39991 | 117.81970 | 3951 ft | 192 kts | 77° |
| 2026-05-04 07:43 | 24.40091 | 117.83420 | 3970 ft | 192 kts | 86° |
| 2026-05-04 07:44 | 24.40139 | 117.84846 | 3963 ft | 185 kts | 84° |
| 2026-05-04 07:44 | 24.40234 | 117.86248 | 3965 ft | 186 kts | 82° |
| 2026-05-04 07:44 | 24.40338 | 117.87610 | 3964 ft | 176 kts | 82° |
| 2026-05-04 07:44 | 24.40434 | 117.88950 | 3965 ft | 174 kts | 82° |
| 2026-05-04 07:45 | 24.40532 | 117.90260 | 3970 ft | 174 kts | 82° |
| 2026-05-04 07:45 | 24.40631 | 117.91592 | 3968 ft | 174 kts | 82° |
| 2026-05-04 07:45 | 24.40782 | 117.92897 | 3965 ft | 172 kts | 75° |
| 2026-05-04 07:45 | 24.41170 | 117.94098 | 3955 ft | 163 kts | 60° |
| 2026-05-04 07:46 | 24.41752 | 117.95088 | 3848 ft | 163 kts | 54° |
| 2026-05-04 07:46 | 24.42435 | 117.96100 | 3561 ft | 157 kts | 52° |
| 2026-05-04 07:46 | 24.43090 | 117.97031 | 3392 ft | 151 kts | 51° |
| 2026-05-04 07:46 | 24.43711 | 117.97899 | 3200 ft | 139 kts | 51° |
| 2026-05-04 07:47 | 24.44278 | 117.98687 | 2937 ft | 129 kts | 50° |
| 2026-05-04 07:47 | 24.44826 | 117.99449 | 2811 ft | 125 kts | 50° |
| 2026-05-04 07:47 | 24.45366 | 118.00198 | 2649 ft | 128 kts | 51° |
| 2026-05-04 07:49 | 24.48920 | 118.05132 | 1531 ft | 116 kts | 50° |
| 2026-05-04 07:49 | 24.49418 | 118.05820 | 1371 ft | 115 kts | 50° |
| 2026-05-04 07:49 | 24.49888 | 118.06475 | 1239 ft | 118 kts | 50° |
| 2026-05-04 07:50 | 24.50394 | 118.07180 | 1072 ft | 117 kts | 50° |
| 2026-05-04 07:50 | 24.50903 | 118.07885 | 922 ft | 118 kts | 50° |
| 2026-05-04 07:50 | 24.51410 | 118.08588 | 757 ft | 118 kts | 50° |
| 2026-05-04 07:50 | 24.51916 | 118.09293 | 612 ft | 120 kts | 50° |
| 2026-05-04 07:51 | 24.52440 | 118.10006 | 442 ft | 120 kts | 49° |
| 2026-05-04 07:51 | 24.52964 | 118.10725 | 294 ft | 120 kts | 50° |
| 2026-05-04 07:51 | 24.53475 | 118.11449 | 127 ft | 122 kts | 51° |
| 2026-05-04 07:51 | 24.53984 | 118.12163 | 74 ft | 112 kts | 50° |
| 2026-05-04 07:52 | 24.54395 | 118.12729 | 72 ft | 66 kts | 52° |
| 2026-05-04 07:52 | 24.54561 | 118.12965 | 72 ft | 29 kts | 50° |
| 2026-05-04 07:52 | 24.54688 | 118.13178 | 72 ft | 34 kts | 69° |
| 2026-05-04 07:52 | 24.54719 | 118.13325 | 72 ft | 14 kts | 78° |
| 2026-05-04 07:53 | 24.54696 | 118.13397 | 72 ft | 9 kts | 153° |
| 2026-05-04 07:54 | 24.54352 | 118.12965 | 72 ft | 25 kts | 234° |
| 2026-05-04 07:55 | 24.54252 | 118.12826 | 72 ft | 14 kts | 226° |
| 2026-05-04 07:55 | 24.54172 | 118.12802 | 72 ft | 11 kts | 161° |
| 2026-05-04 07:55 | 24.54104 | 118.12845 | 72 ft | 10 kts | 178° |
| 2026-05-04 07:55 | 24.54048 | 118.12800 | 72 ft | 10 kts | 227° |
| 2026-05-04 07:56 | 24.54005 | 118.12784 | 72 ft | 5 kts | 162° |
| 2026-05-04 07:56 | 24.53973 | 118.12807 | 72 ft | 5 kts | 142° |
| 2026-05-04 07:56 | 24.53956 | 118.12820 | 72 ft | 0 kts | 142° |